sensor_id;sensor_type;location;lat;lon;timestamp;temperature;humidity
7192;DHT22;3637;51.494;11.958;2023-05-09T00:01:06;11.20;99.90
7192;DHT22;3637;51.494;11.958;2023-05-09T00:04:07;11.20;99.90
7192;DHT22;3637;51.494;11.958;2023-05-09T00:07:10;11.20;99.90
7192;DHT22;3637;51.494;11.958;2023-05-09T00:10:12;11.30;99.90
7192;DHT22;3637;51.494;11.958;2023-05-09T00:13:15;11.10;99.90
7192;DHT22;3637;51.494;11.958;2023-05-09T00:16:18;11.10;99.90
7192;DHT22;3637;51.494;11.958;2023-05-09T00:19:23;11.00;99.90
7192;DHT22;3637;51.494;11.958;2023-05-09T00:22:25;11.50;99.90
7192;DHT22;3637;51.494;11.958;2023-05-09T00:25:26;11.00;99.90
7192;DHT22;3637;51.494;11.958;2023-05-09T00:28:30;10.90;99.90
7192;DHT22;3637;51.494;11.958;2023-05-09T00:31:31;10.90;99.90
7192;DHT22;3637;51.494;11.958;2023-05-09T00:34:33;10.80;99.90
7192;DHT22;3637;51.494;11.958;2023-05-09T00:37:35;10.70;99.90
7192;DHT22;3637;51.494;11.958;2023-05-09T00:40:37;10.90;99.90
7192;DHT22;3637;51.494;11.958;2023-05-09T00:43:40;10.60;99.90
7192;DHT22;3637;51.494;11.958;2023-05-09T00:46:43;10.60;99.90
7192;DHT22;3637;51.494;11.958;2023-05-09T00:49:45;10.50;99.90
7192;DHT22;3637;51.494;11.958;2023-05-09T00:52:47;11.20;99.90
7192;DHT22;3637;51.494;11.958;2023-05-09T00:55:49;10.50;99.90
7192;DHT22;3637;51.494;11.958;2023-05-09T00:58:52;11.10;99.90
7192;DHT22;3637;51.494;11.958;2023-05-09T01:01:55;10.70;99.90
7192;DHT22;3637;51.494;11.958;2023-05-09T01:04:56;10.40;99.90
7192;DHT22;3637;51.494;11.958;2023-05-09T01:08:08;10.90;99.90
7192;DHT22;3637;51.494;11.958;2023-05-09T01:11:15;10.40;99.90
7192;DHT22;3637;51.494;11.958;2023-05-09T01:14:28;10.30;99.90
7192;DHT22;3637;51.494;11.958;2023-05-09T01:17:37;10.40;99.90
7192;DHT22;3637;51.494;11.958;2023-05-09T01:20:42;10.30;99.90
7192;DHT22;3637;51.494;11.958;2023-05-09T01:23:58;10.20;99.90
7192;DHT22;3637;51.494;11.958;2023-05-09T01:27:27;10.20;99.90
7192;DHT22;3637;51.494;11.958;2023-05-09T01:30:37;10.20;99.90
7192;DHT22;3637;51.494;11.958;2023-05-09T01:33:40;10.20;99.90
7192;DHT22;3637;51.494;11.958;2023-05-09T01:36:43;10.10;99.90
7192;DHT22;3637;51.494;11.958;2023-05-09T01:39:52;10.10;99.90
7192;DHT22;3637;51.494;11.958;2023-05-09T01:42:57;10.10;99.90
7192;DHT22;3637;51.494;11.958;2023-05-09T01:46:03;10.10;99.90
7192;DHT22;3637;51.494;11.958;2023-05-09T01:49:07;10.30;99.90
7192;DHT22;3637;51.494;11.958;2023-05-09T01:52:12;10.00;99.90
7192;DHT22;3637;51.494;11.958;2023-05-09T01:55:16;10.50;99.90
7192;DHT22;3637;51.494;11.958;2023-05-09T01:58:20;10.00;99.90
7192;DHT22;3637;51.494;11.958;2023-05-09T02:01:24;9.90;99.90
7192;DHT22;3637;51.494;11.958;2023-05-09T02:04:29;10.00;99.90
7192;DHT22;3637;51.494;11.958;2023-05-09T02:07:32;9.80;99.90
7192;DHT22;3637;51.494;11.958;2023-05-09T02:10:35;9.80;99.90
7192;DHT22;3637;51.494;11.958;2023-05-09T02:13:38;9.80;99.90
7192;DHT22;3637;51.494;11.958;2023-05-09T02:16:44;9.80;99.90
7192;DHT22;3637;51.494;11.958;2023-05-09T02:19:46;10.00;99.90
7192;DHT22;3637;51.494;11.958;2023-05-09T02:22:48;9.80;99.90
7192;DHT22;3637;51.494;11.958;2023-05-09T02:26:21;9.70;99.90
7192;DHT22;3637;51.494;11.958;2023-05-09T02:33:28;9.60;99.90
7192;DHT22;3637;51.494;11.958;2023-05-09T02:36:31;9.70;99.90
7192;DHT22;3637;51.494;11.958;2023-05-09T02:39:33;9.60;99.90
7192;DHT22;3637;51.494;11.958;2023-05-09T02:42:36;9.50;99.90
7192;DHT22;3637;51.494;11.958;2023-05-09T02:45:38;9.60;99.90
7192;DHT22;3637;51.494;11.958;2023-05-09T02:48:41;9.50;99.90
7192;DHT22;3637;51.494;11.958;2023-05-09T02:51:43;9.40;99.90
7192;DHT22;3637;51.494;11.958;2023-05-09T02:54:45;9.70;99.90
7192;DHT22;3637;51.494;11.958;2023-05-09T02:57:47;9.40;99.90
7192;DHT22;3637;51.494;11.958;2023-05-09T03:00:49;9.60;99.90
7192;DHT22;3637;51.494;11.958;2023-05-09T03:03:52;9.40;99.90
7192;DHT22;3637;51.494;11.958;2023-05-09T03:06:54;10.00;99.90
7192;DHT22;3637;51.494;11.958;2023-05-09T03:09:56;9.30;99.90
7192;DHT22;3637;51.494;11.958;2023-05-09T03:12:59;9.20;99.90
7192;DHT22;3637;51.494;11.958;2023-05-09T03:16:01;9.20;99.90
7192;DHT22;3637;51.494;11.958;2023-05-09T03:19:04;9.30;99.90
7192;DHT22;3637;51.494;11.958;2023-05-09T03:22:06;9.20;99.90
7192;DHT22;3637;51.494;11.958;2023-05-09T03:25:08;10.30;99.90
7192;DHT22;3637;51.494;11.958;2023-05-09T03:28:10;9.20;99.90
7192;DHT22;3637;51.494;11.958;2023-05-09T03:31:12;9.00;99.90
7192;DHT22;3637;51.494;11.958;2023-05-09T03:34:15;9.00;99.90
7192;DHT22;3637;51.494;11.958;2023-05-09T03:37:17;9.20;99.90
7192;DHT22;3637;51.494;11.958;2023-05-09T03:40:19;9.10;99.90
7192;DHT22;3637;51.494;11.958;2023-05-09T03:43:21;9.50;99.90
7192;DHT22;3637;51.494;11.958;2023-05-09T03:46:23;9.00;99.90
7192;DHT22;3637;51.494;11.958;2023-05-09T03:49:26;9.00;99.90
7192;DHT22;3637;51.494;11.958;2023-05-09T03:52:28;9.00;99.90
7192;DHT22;3637;51.494;11.958;2023-05-09T03:55:30;8.90;99.90
7192;DHT22;3637;51.494;11.958;2023-05-09T03:58:32;8.90;99.90
7192;DHT22;3637;51.494;11.958;2023-05-09T04:01:34;8.90;99.90
7192;DHT22;3637;51.494;11.958;2023-05-09T04:04:37;8.90;99.90
7192;DHT22;3637;51.494;11.958;2023-05-09T04:07:39;8.90;99.90
7192;DHT22;3637;51.494;11.958;2023-05-09T04:10:41;8.80;99.90
7192;DHT22;3637;51.494;11.958;2023-05-09T04:13:42;8.80;99.90
7192;DHT22;3637;51.494;11.958;2023-05-09T04:16:44;8.80;99.90
7192;DHT22;3637;51.494;11.958;2023-05-09T04:19:47;8.80;99.90
7192;DHT22;3637;51.494;11.958;2023-05-09T04:22:49;8.80;99.90
7192;DHT22;3637;51.494;11.958;2023-05-09T04:25:51;8.80;99.90
7192;DHT22;3637;51.494;11.958;2023-05-09T04:28:53;8.90;99.90
7192;DHT22;3637;51.494;11.958;2023-05-09T04:31:55;9.10;99.90
7192;DHT22;3637;51.494;11.958;2023-05-09T04:34:58;9.00;99.90
7192;DHT22;3637;51.494;11.958;2023-05-09T04:38:00;8.90;99.90
7192;DHT22;3637;51.494;11.958;2023-05-09T04:41:02;9.40;99.90
7192;DHT22;3637;51.494;11.958;2023-05-09T04:44:04;9.00;99.90
7192;DHT22;3637;51.494;11.958;2023-05-09T04:47:06;9.00;99.90
7192;DHT22;3637;51.494;11.958;2023-05-09T04:50:10;9.10;99.90
7192;DHT22;3637;51.494;11.958;2023-05-09T04:53:12;9.10;99.90
7192;DHT22;3637;51.494;11.958;2023-05-09T04:56:14;9.50;99.90
7192;DHT22;3637;51.494;11.958;2023-05-09T04:59:15;9.20;99.90
7192;DHT22;3637;51.494;11.958;2023-05-09T05:02:17;9.30;99.90
7192;DHT22;3637;51.494;11.958;2023-05-09T05:05:22;9.20;99.90
7192;DHT22;3637;51.494;11.958;2023-05-09T05:08:24;9.30;99.90
7192;DHT22;3637;51.494;11.958;2023-05-09T05:11:25;9.30;99.90
7192;DHT22;3637;51.494;11.958;2023-05-09T05:14:27;9.30;99.90
7192;DHT22;3637;51.494;11.958;2023-05-09T05:17:29;9.40;99.90
7192;DHT22;3637;51.494;11.958;2023-05-09T05:20:33;10.80;99.90
7192;DHT22;3637;51.494;11.958;2023-05-09T05:23:35;9.90;99.90
7192;DHT22;3637;51.494;11.958;2023-05-09T05:26:37;9.60;99.90
7192;DHT22;3637;51.494;11.958;2023-05-09T05:29:38;9.60;99.90
7192;DHT22;3637;51.494;11.958;2023-05-09T05:32:40;10.20;99.90
7192;DHT22;3637;51.494;11.958;2023-05-09T05:35:44;10.80;99.90
7192;DHT22;3637;51.494;11.958;2023-05-09T05:38:46;9.40;99.90
7192;DHT22;3637;51.494;11.958;2023-05-09T05:41:48;9.90;99.90
7192;DHT22;3637;51.494;11.958;2023-05-09T05:44:51;10.00;99.90
7192;DHT22;3637;51.494;11.958;2023-05-09T05:47:53;10.10;99.90
7192;DHT22;3637;51.494;11.958;2023-05-09T05:50:57;10.10;99.90
7192;DHT22;3637;51.494;11.958;2023-05-09T05:54:01;10.20;99.90
7192;DHT22;3637;51.494;11.958;2023-05-09T05:57:03;10.80;99.90
7192;DHT22;3637;51.494;11.958;2023-05-09T06:00:06;9.80;99.90
7192;DHT22;3637;51.494;11.958;2023-05-09T06:03:10;10.40;99.90
7192;DHT22;3637;51.494;11.958;2023-05-09T06:06:15;11.30;99.90
7192;DHT22;3637;51.494;11.958;2023-05-09T06:09:16;10.60;99.90
7192;DHT22;3637;51.494;11.958;2023-05-09T06:12:19;10.60;99.90
7192;DHT22;3637;51.494;11.958;2023-05-09T06:15:20;11.40;99.90
7192;DHT22;3637;51.494;11.958;2023-05-09T06:18:22;10.80;99.90
7192;DHT22;3637;51.494;11.958;2023-05-09T06:21:25;10.90;99.90
7192;DHT22;3637;51.494;11.958;2023-05-09T06:24:27;11.00;99.90
7192;DHT22;3637;51.494;11.958;2023-05-09T06:27:29;11.40;99.90
7192;DHT22;3637;51.494;11.958;2023-05-09T06:30:31;12.60;99.90
7192;DHT22;3637;51.494;11.958;2023-05-09T06:33:32;11.30;99.90
7192;DHT22;3637;51.494;11.958;2023-05-09T06:36:36;12.30;99.90
7192;DHT22;3637;51.494;11.958;2023-05-09T06:39:37;11.80;99.90
7192;DHT22;3637;51.494;11.958;2023-05-09T06:42:39;11.60;99.90
7192;DHT22;3637;51.494;11.958;2023-05-09T06:45:41;11.60;99.90
7192;DHT22;3637;51.494;11.958;2023-05-09T06:48:43;11.70;99.90
7192;DHT22;3637;51.494;11.958;2023-05-09T06:51:46;13.20;99.90
7192;DHT22;3637;51.494;11.958;2023-05-09T06:54:48;12.00;99.90
7192;DHT22;3637;51.494;11.958;2023-05-09T06:57:50;12.20;99.90
7192;DHT22;3637;51.494;11.958;2023-05-09T07:00:52;12.10;99.90
7192;DHT22;3637;51.494;11.958;2023-05-09T07:03:54;12.20;99.90
7192;DHT22;3637;51.494;11.958;2023-05-09T07:06:57;12.30;99.90
7192;DHT22;3637;51.494;11.958;2023-05-09T07:10:00;12.40;99.90
7192;DHT22;3637;51.494;11.958;2023-05-09T07:13:04;12.50;99.90
7192;DHT22;3637;51.494;11.958;2023-05-09T07:16:05;12.60;99.90
7192;DHT22;3637;51.494;11.958;2023-05-09T07:19:07;12.70;99.90
7192;DHT22;3637;51.494;11.958;2023-05-09T07:22:10;13.30;99.90
7192;DHT22;3637;51.494;11.958;2023-05-09T07:25:13;12.90;99.90
7192;DHT22;3637;51.494;11.958;2023-05-09T07:28:15;14.00;99.90
7192;DHT22;3637;51.494;11.958;2023-05-09T07:31:16;13.40;99.40
7192;DHT22;3637;51.494;11.958;2023-05-09T07:34:18;13.10;99.70
7192;DHT22;3637;51.494;11.958;2023-05-09T07:37:22;13.20;99.20
7192;DHT22;3637;51.494;11.958;2023-05-09T07:40:23;13.30;99.30
7192;DHT22;3637;51.494;11.958;2023-05-09T07:43:25;14.00;99.20
7192;DHT22;3637;51.494;11.958;2023-05-09T07:46:27;13.40;98.90
7192;DHT22;3637;51.494;11.958;2023-05-09T07:49:29;13.70;99.10
7192;DHT22;3637;51.494;11.958;2023-05-09T07:52:32;13.70;99.20
7192;DHT22;3637;51.494;11.958;2023-05-09T07:55:34;13.70;99.50
7192;DHT22;3637;51.494;11.958;2023-05-09T07:58:36;13.80;99.50
7192;DHT22;3637;51.494;11.958;2023-05-09T08:01:38;13.50;99.00
7192;DHT22;3637;51.494;11.958;2023-05-09T08:04:51;13.90;99.40
7192;DHT22;3637;51.494;11.958;2023-05-09T08:07:54;14.00;98.90
7192;DHT22;3637;51.494;11.958;2023-05-09T08:10:56;13.70;98.90
7192;DHT22;3637;51.494;11.958;2023-05-09T08:14:00;14.30;98.80
7192;DHT22;3637;51.494;11.958;2023-05-09T08:17:02;14.40;98.70
7192;DHT22;3637;51.494;11.958;2023-05-09T08:20:04;14.70;98.40
7192;DHT22;3637;51.494;11.958;2023-05-09T08:23:09;14.50;98.00
7192;DHT22;3637;51.494;11.958;2023-05-09T08:26:11;15.60;98.00
7192;DHT22;3637;51.494;11.958;2023-05-09T08:29:13;14.70;97.50
7192;DHT22;3637;51.494;11.958;2023-05-09T08:32:15;14.90;97.30
7192;DHT22;3637;51.494;11.958;2023-05-09T08:35:19;14.70;97.20
7192;DHT22;3637;51.494;11.958;2023-05-09T08:38:22;14.90;97.50
7192;DHT22;3637;51.494;11.958;2023-05-09T08:41:25;15.00;97.20
7192;DHT22;3637;51.494;11.958;2023-05-09T08:44:29;15.60;96.90
7192;DHT22;3637;51.494;11.958;2023-05-09T08:47:33;15.10;97.40
7192;DHT22;3637;51.494;11.958;2023-05-09T08:50:36;15.40;96.90
7192;DHT22;3637;51.494;11.958;2023-05-09T08:53:39;15.40;96.40
7192;DHT22;3637;51.494;11.958;2023-05-09T08:56:41;15.30;96.50
7192;DHT22;3637;51.494;11.958;2023-05-09T08:59:46;15.50;96.60
7192;DHT22;3637;51.494;11.958;2023-05-09T09:02:50;15.60;96.20
7192;DHT22;3637;51.494;11.958;2023-05-09T09:05:53;15.60;95.90
7192;DHT22;3637;51.494;11.958;2023-05-09T09:08:56;15.70;96.10
7192;DHT22;3637;51.494;11.958;2023-05-09T09:12:05;15.80;96.60
7192;DHT22;3637;51.494;11.958;2023-05-09T09:15:10;15.80;96.70
7192;DHT22;3637;51.494;11.958;2023-05-09T09:18:21;15.80;96.30
7192;DHT22;3637;51.494;11.958;2023-05-09T09:21:23;15.90;96.70
7192;DHT22;3637;51.494;11.958;2023-05-09T09:24:27;15.90;95.30
7192;DHT22;3637;51.494;11.958;2023-05-09T09:27:31;15.90;96.20
7192;DHT22;3637;51.494;11.958;2023-05-09T09:30:33;16.00;96.30
7192;DHT22;3637;51.494;11.958;2023-05-09T09:33:34;16.40;95.70
7192;DHT22;3637;51.494;11.958;2023-05-09T09:36:36;16.10;95.10
7192;DHT22;3637;51.494;11.958;2023-05-09T09:39:52;16.20;95.10
7192;DHT22;3637;51.494;11.958;2023-05-09T09:42:54;16.30;94.60
7192;DHT22;3637;51.494;11.958;2023-05-09T09:45:56;16.30;94.40
7192;DHT22;3637;51.494;11.958;2023-05-09T09:49:01;16.50;94.00
7192;DHT22;3637;51.494;11.958;2023-05-09T09:52:02;16.50;93.40
7192;DHT22;3637;51.494;11.958;2023-05-09T09:55:06;16.50;93.70
7192;DHT22;3637;51.494;11.958;2023-05-09T09:58:15;16.60;93.60
7192;DHT22;3637;51.494;11.958;2023-05-09T10:01:17;16.70;93.30
7192;DHT22;3637;51.494;11.958;2023-05-09T10:04:20;16.70;93.70
7192;DHT22;3637;51.494;11.958;2023-05-09T10:07:22;16.90;93.50
7192;DHT22;3637;51.494;11.958;2023-05-09T10:10:27;17.50;93.90
7192;DHT22;3637;51.494;11.958;2023-05-09T10:13:29;16.90;93.20
7192;DHT22;3637;51.494;11.958;2023-05-09T10:16:31;17.30;93.40
7192;DHT22;3637;51.494;11.958;2023-05-09T10:19:35;17.80;93.70
7192;DHT22;3637;51.494;11.958;2023-05-09T10:22:39;17.00;93.50
7192;DHT22;3637;51.494;11.958;2023-05-09T10:25:46;17.10;93.50
7192;DHT22;3637;51.494;11.958;2023-05-09T10:28:48;17.10;93.10
7192;DHT22;3637;51.494;11.958;2023-05-09T10:31:58;17.30;93.10
7192;DHT22;3637;51.494;11.958;2023-05-09T10:35:05;17.30;92.50
7192;DHT22;3637;51.494;11.958;2023-05-09T10:38:08;17.40;92.50
7192;DHT22;3637;51.494;11.958;2023-05-09T10:41:13;17.40;91.80
7192;DHT22;3637;51.494;11.958;2023-05-09T10:44:16;17.80;92.00
7192;DHT22;3637;51.494;11.958;2023-05-09T10:47:18;17.50;92.00
7192;DHT22;3637;51.494;11.958;2023-05-09T10:50:21;17.40;92.10
7192;DHT22;3637;51.494;11.958;2023-05-09T10:53:23;17.70;92.30
7192;DHT22;3637;51.494;11.958;2023-05-09T10:56:41;17.40;91.80
7192;DHT22;3637;51.494;11.958;2023-05-09T10:59:43;17.70;91.70
7192;DHT22;3637;51.494;11.958;2023-05-09T11:03:04;17.80;91.60
7192;DHT22;3637;51.494;11.958;2023-05-09T11:06:07;17.80;91.40
7192;DHT22;3637;51.494;11.958;2023-05-09T11:09:22;18.90;91.50
7192;DHT22;3637;51.494;11.958;2023-05-09T11:12:27;18.00;90.30
7192;DHT22;3637;51.494;11.958;2023-05-09T11:15:29;18.10;90.60
7192;DHT22;3637;51.494;11.958;2023-05-09T11:18:32;17.80;90.50
7192;DHT22;3637;51.494;11.958;2023-05-09T11:21:35;18.20;90.40
7192;DHT22;3637;51.494;11.958;2023-05-09T11:24:37;18.30;90.50
7192;DHT22;3637;51.494;11.958;2023-05-09T11:27:42;18.10;89.90
7192;DHT22;3637;51.494;11.958;2023-05-09T11:30:44;18.60;90.10
7192;DHT22;3637;51.494;11.958;2023-05-09T11:33:48;18.40;89.20
7192;DHT22;3637;51.494;11.958;2023-05-09T11:37:06;18.80;88.20
7192;DHT22;3637;51.494;11.958;2023-05-09T11:40:11;18.50;90.50
7192;DHT22;3637;51.494;11.958;2023-05-09T11:43:14;18.50;88.20
7192;DHT22;3637;51.494;11.958;2023-05-09T11:46:18;18.50;88.40
7192;DHT22;3637;51.494;11.958;2023-05-09T11:49:20;18.60;88.90
7192;DHT22;3637;51.494;11.958;2023-05-09T11:52:24;18.60;88.60
7192;DHT22;3637;51.494;11.958;2023-05-09T11:55:26;18.70;87.90
7192;DHT22;3637;51.494;11.958;2023-05-09T11:58:30;18.70;85.40
7192;DHT22;3637;51.494;11.958;2023-05-09T12:01:32;18.80;86.20
7192;DHT22;3637;51.494;11.958;2023-05-09T12:04:34;20.00;85.70
7192;DHT22;3637;51.494;11.958;2023-05-09T12:07:36;18.90;85.80
7192;DHT22;3637;51.494;11.958;2023-05-09T12:10:39;19.20;86.80
7192;DHT22;3637;51.494;11.958;2023-05-09T12:13:46;18.90;84.40
7192;DHT22;3637;51.494;11.958;2023-05-09T12:16:48;19.20;85.00
7192;DHT22;3637;51.494;11.958;2023-05-09T12:19:51;19.10;84.40
7192;DHT22;3637;51.494;11.958;2023-05-09T12:22:53;19.40;83.90
7192;DHT22;3637;51.494;11.958;2023-05-09T12:25:57;19.20;83.90
7192;DHT22;3637;51.494;11.958;2023-05-09T12:29:01;19.00;82.20
7192;DHT22;3637;51.494;11.958;2023-05-09T12:32:03;19.20;83.00
7192;DHT22;3637;51.494;11.958;2023-05-09T12:35:06;19.20;81.70
7192;DHT22;3637;51.494;11.958;2023-05-09T12:38:13;19.20;82.00
7192;DHT22;3637;51.494;11.958;2023-05-09T12:41:17;19.20;82.40
7192;DHT22;3637;51.494;11.958;2023-05-09T12:44:24;19.30;82.30
7192;DHT22;3637;51.494;11.958;2023-05-09T12:47:28;19.40;80.70
7192;DHT22;3637;51.494;11.958;2023-05-09T12:50:31;19.30;81.00
7192;DHT22;3637;51.494;11.958;2023-05-09T12:53:37;19.40;80.40
7192;DHT22;3637;51.494;11.958;2023-05-09T12:56:39;19.50;79.80
7192;DHT22;3637;51.494;11.958;2023-05-09T12:59:43;19.80;80.60
7192;DHT22;3637;51.494;11.958;2023-05-09T13:02:44;19.20;79.70
7192;DHT22;3637;51.494;11.958;2023-05-09T13:05:53;19.20;80.20
7192;DHT22;3637;51.494;11.958;2023-05-09T13:08:59;19.50;80.30
7192;DHT22;3637;51.494;11.958;2023-05-09T13:12:02;19.50;78.10
7192;DHT22;3637;51.494;11.958;2023-05-09T13:15:07;19.50;79.30
7192;DHT22;3637;51.494;11.958;2023-05-09T13:18:10;19.50;76.90
7192;DHT22;3637;51.494;11.958;2023-05-09T13:21:12;19.70;77.80
7192;DHT22;3637;51.494;11.958;2023-05-09T13:24:13;19.80;78.70
7192;DHT22;3637;51.494;11.958;2023-05-09T13:27:15;19.80;80.30
7192;DHT22;3637;51.494;11.958;2023-05-09T13:30:18;19.90;76.90
7192;DHT22;3637;51.494;11.958;2023-05-09T13:33:20;19.90;75.10
7192;DHT22;3637;51.494;11.958;2023-05-09T13:36:22;19.90;75.90
7192;DHT22;3637;51.494;11.958;2023-05-09T13:39:24;20.10;75.40
7192;DHT22;3637;51.494;11.958;2023-05-09T13:42:27;20.00;74.10
7192;DHT22;3637;51.494;11.958;2023-05-09T13:45:30;20.00;75.20
7192;DHT22;3637;51.494;11.958;2023-05-09T13:51:33;20.10;74.40
7192;DHT22;3637;51.494;11.958;2023-05-09T13:54:35;20.00;74.40
7192;DHT22;3637;51.494;11.958;2023-05-09T13:57:37;20.00;74.60
7192;DHT22;3637;51.494;11.958;2023-05-09T14:00:40;20.10;72.30
7192;DHT22;3637;51.494;11.958;2023-05-09T14:03:42;20.10;73.10
7192;DHT22;3637;51.494;11.958;2023-05-09T14:06:48;20.10;72.40
7192;DHT22;3637;51.494;11.958;2023-05-09T14:09:50;20.10;72.70
7192;DHT22;3637;51.494;11.958;2023-05-09T14:12:52;20.10;70.30
7192;DHT22;3637;51.494;11.958;2023-05-09T14:15:58;20.20;71.40
7192;DHT22;3637;51.494;11.958;2023-05-09T14:19:00;20.10;71.10
7192;DHT22;3637;51.494;11.958;2023-05-09T14:22:02;20.10;70.80
7192;DHT22;3637;51.494;11.958;2023-05-09T14:25:04;20.10;69.30
7192;DHT22;3637;51.494;11.958;2023-05-09T14:28:06;20.10;68.40
7192;DHT22;3637;51.494;11.958;2023-05-09T14:31:10;20.20;69.90
7192;DHT22;3637;51.494;11.958;2023-05-09T14:34:12;20.50;69.40
7192;DHT22;3637;51.494;11.958;2023-05-09T14:37:14;20.20;67.60
7192;DHT22;3637;51.494;11.958;2023-05-09T14:40:16;20.00;67.10
7192;DHT22;3637;51.494;11.958;2023-05-09T14:43:18;20.20;65.40
7192;DHT22;3637;51.494;11.958;2023-05-09T14:46:23;20.30;65.10
7192;DHT22;3637;51.494;11.958;2023-05-09T14:49:25;20.30;64.00
7192;DHT22;3637;51.494;11.958;2023-05-09T14:52:26;20.30;61.60
7192;DHT22;3637;51.494;11.958;2023-05-09T14:55:29;20.40;60.50
7192;DHT22;3637;51.494;11.958;2023-05-09T14:58:30;20.50;58.50
7192;DHT22;3637;51.494;11.958;2023-05-09T15:01:35;20.80;58.00
7192;DHT22;3637;51.494;11.958;2023-05-09T15:04:36;20.50;57.70
7192;DHT22;3637;51.494;11.958;2023-05-09T15:07:40;20.50;56.80
7192;DHT22;3637;51.494;11.958;2023-05-09T15:10:42;20.40;58.00
7192;DHT22;3637;51.494;11.958;2023-05-09T15:13:44;20.50;57.40
7192;DHT22;3637;51.494;11.958;2023-05-09T15:16:50;20.50;56.60
7192;DHT22;3637;51.494;11.958;2023-05-09T15:19:52;20.50;57.50
7192;DHT22;3637;51.494;11.958;2023-05-09T15:22:54;20.50;57.90
7192;DHT22;3637;51.494;11.958;2023-05-09T15:26:00;20.50;58.20
7192;DHT22;3637;51.494;11.958;2023-05-09T15:29:02;20.60;56.50
7192;DHT22;3637;51.494;11.958;2023-05-09T15:32:05;20.60;54.80
7192;DHT22;3637;51.494;11.958;2023-05-09T15:35:08;20.60;56.20
7192;DHT22;3637;51.494;11.958;2023-05-09T15:38:10;20.60;55.70
7192;DHT22;3637;51.494;11.958;2023-05-09T15:41:12;21.80;56.70
7192;DHT22;3637;51.494;11.958;2023-05-09T15:44:16;20.60;55.50
7192;DHT22;3637;51.494;11.958;2023-05-09T15:47:24;20.60;53.70
7192;DHT22;3637;51.494;11.958;2023-05-09T15:50:43;21.00;53.30
7192;DHT22;3637;51.494;11.958;2023-05-09T15:53:51;20.40;53.30
7192;DHT22;3637;51.494;11.958;2023-05-09T15:56:53;20.60;54.10
7192;DHT22;3637;51.494;11.958;2023-05-09T15:59:55;20.30;54.10
7192;DHT22;3637;51.494;11.958;2023-05-09T16:02:58;19.80;53.00
7192;DHT22;3637;51.494;11.958;2023-05-09T16:06:04;21.30;54.30
7192;DHT22;3637;51.494;11.958;2023-05-09T16:09:22;20.10;53.50
7192;DHT22;3637;51.494;11.958;2023-05-09T16:12:24;20.10;53.90
7192;DHT22;3637;51.494;11.958;2023-05-09T16:15:28;20.10;52.20
7192;DHT22;3637;51.494;11.958;2023-05-09T16:18:34;20.20;51.40
7192;DHT22;3637;51.494;11.958;2023-05-09T16:21:43;19.90;51.40
7192;DHT22;3637;51.494;11.958;2023-05-09T16:24:46;20.00;50.30
7192;DHT22;3637;51.494;11.958;2023-05-09T16:27:48;19.90;50.50
7192;DHT22;3637;51.494;11.958;2023-05-09T16:30:55;19.90;51.10
7192;DHT22;3637;51.494;11.958;2023-05-09T16:33:58;19.90;50.70
7192;DHT22;3637;51.494;11.958;2023-05-09T16:37:02;19.80;50.50
7192;DHT22;3637;51.494;11.958;2023-05-09T16:40:07;19.80;50.20
7192;DHT22;3637;51.494;11.958;2023-05-09T16:43:12;19.70;50.30
7192;DHT22;3637;51.494;11.958;2023-05-09T16:46:16;19.90;49.70
7192;DHT22;3637;51.494;11.958;2023-05-09T16:49:20;19.90;50.00
7192;DHT22;3637;51.494;11.958;2023-05-09T16:52:21;19.60;50.10
7192;DHT22;3637;51.494;11.958;2023-05-09T16:55:23;19.80;49.80
7192;DHT22;3637;51.494;11.958;2023-05-09T16:58:25;19.50;50.50
7192;DHT22;3637;51.494;11.958;2023-05-09T17:01:27;19.60;50.70
7192;DHT22;3637;51.494;11.958;2023-05-09T17:04:31;19.70;51.50
7192;DHT22;3637;51.494;11.958;2023-05-09T17:07:37;19.30;51.80
7192;DHT22;3637;51.494;11.958;2023-05-09T17:10:42;19.40;51.60
7192;DHT22;3637;51.494;11.958;2023-05-09T17:13:44;19.30;51.70
7192;DHT22;3637;51.494;11.958;2023-05-09T17:16:46;19.50;52.50
7192;DHT22;3637;51.494;11.958;2023-05-09T17:19:50;19.20;53.10
7192;DHT22;3637;51.494;11.958;2023-05-09T17:22:51;19.20;53.30
7192;DHT22;3637;51.494;11.958;2023-05-09T17:25:53;19.10;53.90
7192;DHT22;3637;51.494;11.958;2023-05-09T17:28:56;19.00;55.10
7192;DHT22;3637;51.494;11.958;2023-05-09T17:32:02;19.20;55.70
7192;DHT22;3637;51.494;11.958;2023-05-09T17:35:08;18.80;55.20
7192;DHT22;3637;51.494;11.958;2023-05-09T17:38:13;18.80;56.10
7192;DHT22;3637;51.494;11.958;2023-05-09T17:41:15;18.70;56.00
7192;DHT22;3637;51.494;11.958;2023-05-09T17:44:16;18.80;56.20
7192;DHT22;3637;51.494;11.958;2023-05-09T17:47:18;18.80;58.10
7192;DHT22;3637;51.494;11.958;2023-05-09T17:50:22;18.80;57.50
7192;DHT22;3637;51.494;11.958;2023-05-09T17:53:24;18.50;57.60
7192;DHT22;3637;51.494;11.958;2023-05-09T17:56:26;18.40;58.00
7192;DHT22;3637;51.494;11.958;2023-05-09T17:59:28;18.40;58.90
7192;DHT22;3637;51.494;11.958;2023-05-09T18:02:30;18.30;60.00
7192;DHT22;3637;51.494;11.958;2023-05-09T18:05:33;18.30;60.30
7192;DHT22;3637;51.494;11.958;2023-05-09T18:08:35;18.20;61.30
7192;DHT22;3637;51.494;11.958;2023-05-09T18:11:37;18.10;61.70
7192;DHT22;3637;51.494;11.958;2023-05-09T18:14:38;18.20;62.20
7192;DHT22;3637;51.494;11.958;2023-05-09T18:17:40;18.10;62.40
7192;DHT22;3637;51.494;11.958;2023-05-09T18:20:45;17.90;63.00
7192;DHT22;3637;51.494;11.958;2023-05-09T18:23:46;18.20;63.20
7192;DHT22;3637;51.494;11.958;2023-05-09T18:26:48;17.80;63.30
7192;DHT22;3637;51.494;11.958;2023-05-09T18:29:50;17.70;63.60
7192;DHT22;3637;51.494;11.958;2023-05-09T18:32:52;17.60;63.90
7192;DHT22;3637;51.494;11.958;2023-05-09T18:35:55;17.80;64.80
7192;DHT22;3637;51.494;11.958;2023-05-09T18:39:00;18.00;65.20
7192;DHT22;3637;51.494;11.958;2023-05-09T18:42:02;17.50;65.40
7192;DHT22;3637;51.494;11.958;2023-05-09T18:45:06;17.30;65.20
7192;DHT22;3637;51.494;11.958;2023-05-09T18:48:08;17.30;66.40
7192;DHT22;3637;51.494;11.958;2023-05-09T18:51:11;17.40;66.60
7192;DHT22;3637;51.494;11.958;2023-05-09T18:54:14;17.20;66.70
7192;DHT22;3637;51.494;11.958;2023-05-09T18:57:15;17.10;66.90
7192;DHT22;3637;51.494;11.958;2023-05-09T19:00:18;17.30;67.70
7192;DHT22;3637;51.494;11.958;2023-05-09T19:03:20;17.00;67.80
7192;DHT22;3637;51.494;11.958;2023-05-09T19:06:25;16.90;68.10
7192;DHT22;3637;51.494;11.958;2023-05-09T19:09:28;16.90;68.80
7192;DHT22;3637;51.494;11.958;2023-05-09T19:12:30;17.00;69.50
7192;DHT22;3637;51.494;11.958;2023-05-09T19:15:32;16.70;69.60
7192;DHT22;3637;51.494;11.958;2023-05-09T19:18:34;17.00;70.40
7192;DHT22;3637;51.494;11.958;2023-05-09T19:21:39;16.60;70.70
7192;DHT22;3637;51.494;11.958;2023-05-09T19:24:41;16.60;71.30
7192;DHT22;3637;51.494;11.958;2023-05-09T19:27:44;16.40;71.40
7192;DHT22;3637;51.494;11.958;2023-05-09T19:30:46;16.40;72.10
7192;DHT22;3637;51.494;11.958;2023-05-09T19:33:49;16.30;72.70
7192;DHT22;3637;51.494;11.958;2023-05-09T19:36:55;16.20;73.30
7192;DHT22;3637;51.494;11.958;2023-05-09T19:39:56;16.20;73.40
7192;DHT22;3637;51.494;11.958;2023-05-09T19:42:59;16.20;73.70
7192;DHT22;3637;51.494;11.958;2023-05-09T19:46:00;16.10;74.40
7192;DHT22;3637;51.494;11.958;2023-05-09T19:49:03;16.00;74.90